createdAt,value
2022-11-05T00:00:18.961Z,2.03
2022-11-05T00:03:05.544Z,2.05
2022-11-05T00:05:51.150Z,2.03
2022-11-05T00:08:36.769Z,1.83
2022-11-05T00:11:04.534Z,1.85
2022-11-05T00:13:49.855Z,1.95
2022-11-05T00:16:43.224Z,2.22
2022-11-05T00:19:13.432Z,2.15
2022-11-05T00:21:58.738Z,2.25
2022-11-05T00:24:58.758Z,2.10
2022-11-05T00:27:26.603Z,2.78
2022-11-05T00:29:54.316Z,2.25
2022-11-05T00:32:23.881Z,1.90
2022-11-05T00:34:52.942Z,2.00
2022-11-05T00:37:20.680Z,2.38
2022-11-05T00:39:48.452Z,2.15
2022-11-05T00:42:35.811Z,1.70
2022-11-05T00:45:04.164Z,2.30
2022-11-05T00:47:50.620Z,1.90
2022-11-05T00:50:20.760Z,1.83
2022-11-05T00:52:57.828Z,1.70
2022-11-05T00:55:28.387Z,2.20
2022-11-05T00:57:56.888Z,1.92
2022-11-05T01:00:26.506Z,2.45
2022-11-05T01:02:54.551Z,1.88
2022-11-05T01:05:23.766Z,2.10
2022-11-05T01:07:52.657Z,2.13
2022-11-05T01:10:20.580Z,2.13
2022-11-05T01:12:48.383Z,2.22
2022-11-05T01:15:16.801Z,1.92
2022-11-05T01:17:44.572Z,1.80
2022-11-05T01:20:13.103Z,2.20
2022-11-05T01:22:42.167Z,1.80
2022-11-05T01:25:11.043Z,1.45
2022-11-05T01:27:39.513Z,1.60
2022-11-05T01:30:09.029Z,2.25
2022-11-05T01:32:37.813Z,1.67
2022-11-05T01:35:06.563Z,1.63
2022-11-05T01:37:35.391Z,1.80
2022-11-05T01:40:05.628Z,1.85
2022-11-05T01:42:33.948Z,1.90
2022-11-05T01:45:05.830Z,2.08
2022-11-05T01:47:40.445Z,1.33
2022-11-05T01:50:22.262Z,1.88
2022-11-05T01:52:52.980Z,2.75
2022-11-05T01:55:27.383Z,1.60
2022-11-05T01:57:58.473Z,1.52
2022-11-05T02:00:26.438Z,1.75
2022-11-05T02:02:54.655Z,1.70
2022-11-05T02:05:23.108Z,1.90
2022-11-05T02:07:52.001Z,1.52
2022-11-05T02:10:20.383Z,1.90
2022-11-05T02:12:49.459Z,1.77
2022-11-05T02:15:22.676Z,1.77
2022-11-05T02:18:02.824Z,1.55
2022-11-05T02:20:42.491Z,1.70
2022-11-05T02:23:52.092Z,1.35
2022-11-05T02:27:01.103Z,2.08
2022-11-05T02:29:55.559Z,1.63
2022-11-05T02:32:36.641Z,1.85
2022-11-05T02:35:14.881Z,1.73
2022-11-05T02:37:47.485Z,1.63
2022-11-05T02:40:20.684Z,1.77
2022-11-05T02:42:58.543Z,1.60
2022-11-05T02:45:35.797Z,1.77
2022-11-05T02:48:13.726Z,1.50
2022-11-05T02:50:50.951Z,1.65
2022-11-05T02:53:25.140Z,1.80
2022-11-05T02:55:59.344Z,1.85
2022-11-05T02:58:29.054Z,1.92
2022-11-05T03:00:57.598Z,1.65
2022-11-05T03:03:30.541Z,1.80
2022-11-05T03:06:19.339Z,1.48
2022-11-05T03:09:16.346Z,1.70
2022-11-05T03:11:54.829Z,1.70
2022-11-05T03:14:30.690Z,1.60
2022-11-05T03:17:08.570Z,1.70
2022-11-05T03:19:45.272Z,1.90
2022-11-05T03:22:17.759Z,1.38
2022-11-05T03:24:50.069Z,1.58
2022-11-05T03:27:22.401Z,1.70
2022-11-05T03:29:54.032Z,2.05
2022-11-05T03:32:23.609Z,1.60
2022-11-05T03:34:59.543Z,1.35
2022-11-05T03:37:32.201Z,1.70
2022-11-05T03:40:04.149Z,1.45
2022-11-05T03:42:36.006Z,1.52
2022-11-05T03:45:11.381Z,1.67
2022-11-05T03:47:42.376Z,1.48
2022-11-05T03:50:20.708Z,1.88
2022-11-05T03:52:53.378Z,1.52
2022-11-05T03:55:26.182Z,1.70
2022-11-05T03:57:56.523Z,1.30
2022-11-05T04:00:24.669Z,1.52
2022-11-05T04:02:52.508Z,1.55
2022-11-05T04:05:21.753Z,1.48
2022-11-05T04:08:14.447Z,1.85
2022-11-05T04:11:00.497Z,1.40
2022-11-05T04:13:28.263Z,1.60
2022-11-05T04:16:15.199Z,1.33
2022-11-05T04:18:43.633Z,1.40
2022-11-05T04:21:30.303Z,1.50
2022-11-05T04:24:10.777Z,1.90
2022-11-05T04:26:39.737Z,1.65
2022-11-05T04:29:24.981Z,1.48
2022-11-05T04:31:53.441Z,1.50
2022-11-05T04:34:21.973Z,1.50
2022-11-05T04:36:51.728Z,1.70
2022-11-05T04:39:20.516Z,1.13
2022-11-05T04:41:48.921Z,1.55
2022-11-05T04:44:17.124Z,1.30
2022-11-05T04:46:45.240Z,1.60
2022-11-05T04:49:12.959Z,1.30
2022-11-05T04:51:40.710Z,1.50
2022-11-05T04:54:09.796Z,1.48
2022-11-05T04:56:37.991Z,1.92
2022-11-05T04:59:05.742Z,1.55
2022-11-05T05:01:33.761Z,2.08
2022-11-05T05:04:01.597Z,1.48
2022-11-05T05:06:29.363Z,1.65
2022-11-05T05:08:57.242Z,1.98
2022-11-05T05:11:26.305Z,1.55
2022-11-05T05:13:54.186Z,1.60
2022-11-05T05:16:24.129Z,1.45
2022-11-05T05:18:52.949Z,1.98
2022-11-05T05:21:40.543Z,1.70
2022-11-05T05:24:10.705Z,1.48
2022-11-05T05:26:41.844Z,1.63
2022-11-05T05:29:10.774Z,1.77
2022-11-05T05:31:39.143Z,1.73
2022-11-05T05:34:08.145Z,2.53
2022-11-05T05:36:35.937Z,2.03
2022-11-05T05:39:06.475Z,2.08
2022-11-05T05:41:34.237Z,1.90
2022-11-05T05:44:05.204Z,1.88
2022-11-05T05:46:33.076Z,2.00
2022-11-05T05:49:01.140Z,1.80
2022-11-05T05:51:28.863Z,1.80
2022-11-05T05:53:56.605Z,1.90
2022-11-05T05:56:24.383Z,2.28
2022-11-05T05:58:52.240Z,1.90
2022-11-05T06:01:21.534Z,2.08
2022-11-05T06:03:49.836Z,2.40
2022-11-05T06:06:20.858Z,2.25
2022-11-05T06:08:49.341Z,2.13
2022-11-05T06:11:17.271Z,2.13
2022-11-05T06:13:45.132Z,2.03
2022-11-05T06:16:12.953Z,2.30
2022-11-05T06:18:42.143Z,2.17
2022-11-05T06:21:12.143Z,2.10
2022-11-05T06:23:42.556Z,2.30
2022-11-05T06:26:12.132Z,2.47
2022-11-05T06:28:39.978Z,2.13
2022-11-05T06:31:07.734Z,2.10
2022-11-05T06:33:35.653Z,2.40
2022-11-05T06:36:05.868Z,2.03
2022-11-05T06:38:35.204Z,2.08
2022-11-05T06:41:09.797Z,2.15
2022-11-05T06:43:38.421Z,1.98
2022-11-05T06:46:06.626Z,1.98
2022-11-05T06:48:34.678Z,1.77
2022-11-05T06:51:04.521Z,2.10
2022-11-05T06:53:32.577Z,2.22
2022-11-05T06:56:03.789Z,2.03
2022-11-05T06:58:32.036Z,1.52
2022-11-05T07:01:03.964Z,1.48
2022-11-05T07:03:32.221Z,1.75
2022-11-05T07:06:01.248Z,1.75
2022-11-05T07:08:32.740Z,1.58
2022-11-05T07:11:01.231Z,1.85
2022-11-05T07:13:29.165Z,1.70
2022-11-05T07:15:57.113Z,1.60
2022-11-05T07:18:25.347Z,1.70
2022-11-05T07:20:53.192Z,1.38
2022-11-05T07:23:20.945Z,1.38
2022-11-05T07:25:50.285Z,1.70
2022-11-05T07:28:18.108Z,1.42
2022-11-05T07:30:45.871Z,1.58
2022-11-05T07:33:14.154Z,1.50
2022-11-05T07:35:42.159Z,1.70
2022-11-05T07:38:10.039Z,1.63
2022-11-05T07:40:38.368Z,1.52
2022-11-05T07:43:07.497Z,1.60
2022-11-05T07:45:35.282Z,1.55
2022-11-05T07:48:04.912Z,1.40
2022-11-05T07:50:34.258Z,1.83
2022-11-05T07:53:02.209Z,1.33
2022-11-05T07:55:30.455Z,1.85
2022-11-05T07:57:58.334Z,2.15
2022-11-05T08:00:29.008Z,1.67
2022-11-05T08:03:07.222Z,1.50
2022-11-05T08:05:38.330Z,1.73
2022-11-05T08:08:07.620Z,1.55
2022-11-05T08:10:35.847Z,1.25
2022-11-05T08:13:03.677Z,1.65
2022-11-05T08:15:33.644Z,1.10
2022-11-05T08:18:03.049Z,1.52
2022-11-05T08:20:31.897Z,2.55
2022-11-05T08:23:00.125Z,1.45
2022-11-05T08:25:27.971Z,1.25
2022-11-05T08:28:00.446Z,0.95
2022-11-05T08:30:28.708Z,1.63
2022-11-05T08:32:59.528Z,1.20
2022-11-05T08:44:29.531Z,1.25
2022-11-05T08:46:57.277Z,1.10
2022-11-05T08:49:26.377Z,1.30
2022-11-05T08:51:54.110Z,1.13
2022-11-05T08:54:21.833Z,1.05
2022-11-05T08:56:49.604Z,1.33
2022-11-05T08:59:17.354Z,1.17
2022-11-05T09:01:45.146Z,1.50
2022-11-05T09:04:13.027Z,1.25
2022-11-05T09:06:42.097Z,1.00
2022-11-05T09:09:09.849Z,1.50
2022-11-05T09:12:09.855Z,1.38
2022-11-05T09:14:26.949Z,1.42
2022-11-05T09:16:54.714Z,1.13
2022-11-05T09:19:22.456Z,1.52
2022-11-05T09:21:51.597Z,1.40
2022-11-05T09:24:19.340Z,0.90
2022-11-05T09:26:47.129Z,1.65
2022-11-05T09:29:14.846Z,1.83
2022-11-05T09:31:42.980Z,1.45
2022-11-05T09:34:10.703Z,1.20
2022-11-05T09:36:38.462Z,1.38
2022-11-05T09:39:07.575Z,1.42
2022-11-05T09:41:38.384Z,2.30
2022-11-05T09:44:12.648Z,1.20
2022-11-05T09:46:43.130Z,1.10
2022-11-05T09:49:25.331Z,1.25
2022-11-05T09:51:54.848Z,1.30
2022-11-05T09:54:26.996Z,1.15
2022-11-05T09:56:56.405Z,1.35
2022-11-05T09:59:30.512Z,1.33
2022-11-05T10:02:03.699Z,1.27
2022-11-05T10:04:35.167Z,1.20
2022-11-05T10:07:05.708Z,1.45
2022-11-05T10:09:40.088Z,1.02
2022-11-05T10:12:13.399Z,1.60
2022-11-05T10:14:45.165Z,1.17
2022-11-05T10:17:21.193Z,1.17
2022-11-05T10:19:55.250Z,1.05
2022-11-05T10:22:23.066Z,1.20
2022-11-05T10:24:53.268Z,1.17
2022-11-05T10:27:24.277Z,0.95
2022-11-05T10:29:52.973Z,1.10
2022-11-05T10:32:27.937Z,1.23
2022-11-05T10:34:58.136Z,0.93
2022-11-05T10:37:26.299Z,0.90
2022-11-05T10:39:56.083Z,0.90
2022-11-05T10:42:42.738Z,1.60
2022-11-05T10:45:20.366Z,1.00
2022-11-05T10:47:56.085Z,0.80
2022-11-05T10:50:26.782Z,0.95
2022-11-05T10:52:58.923Z,0.95
2022-11-05T10:55:30.645Z,0.90
2022-11-05T10:58:10.009Z,1.00
2022-11-05T11:00:38.021Z,0.80
2022-11-05T11:03:26.871Z,1.00
2022-11-05T11:06:00.771Z,0.70
2022-11-05T11:08:29.485Z,0.75
2022-11-05T11:11:03.090Z,0.65
2022-11-05T11:13:49.962Z,0.70
2022-11-05T11:16:21.657Z,0.77
2022-11-05T11:18:54.444Z,0.68
2022-11-05T11:21:24.101Z,0.80
2022-11-05T11:23:56.213Z,0.57
2022-11-05T11:26:27.424Z,0.70
2022-11-05T11:28:59.629Z,0.70
2022-11-05T11:31:29.937Z,1.02
2022-11-05T11:34:01.124Z,0.60
2022-11-05T11:36:35.093Z,0.65
2022-11-05T11:39:05.294Z,0.90
2022-11-05T11:41:38.397Z,0.63
2022-11-05T11:44:13.671Z,0.80
2022-11-05T11:46:42.342Z,1.00
2022-11-05T11:49:33.883Z,1.10
2022-11-05T11:52:05.496Z,0.98
2022-11-05T11:54:34.636Z,1.15
2022-11-05T11:57:02.646Z,0.98
2022-11-05T12:00:02.000Z,1.35
2022-11-05T12:03:01.835Z,0.77
2022-11-05T12:05:44.539Z,1.10
2022-11-05T12:08:31.983Z,0.85
2022-11-05T12:11:06.536Z,1.00
2022-11-05T12:14:04.302Z,1.02
2022-11-05T12:17:05.042Z,0.90
2022-11-05T12:19:49.555Z,0.82
2022-11-05T12:22:29.737Z,0.80
2022-11-05T12:25:16.463Z,0.93
2022-11-05T12:28:02.119Z,0.90
2022-11-05T12:30:41.087Z,0.73
2022-11-05T12:33:28.157Z,0.63
2022-11-05T12:36:08.155Z,0.82
2022-11-05T12:39:04.245Z,0.80
2022-11-05T12:41:35.723Z,0.80
2022-11-05T12:44:16.562Z,1.02
2022-11-05T12:46:55.299Z,0.80
2022-11-05T12:49:37.089Z,0.80
2022-11-05T12:52:16.588Z,0.75
2022-11-05T12:54:59.513Z,0.80
2022-11-05T12:57:29.533Z,0.77
2022-11-05T13:00:05.427Z,0.90
2022-11-05T13:02:38.518Z,0.88
2022-11-05T13:05:13.486Z,0.80
2022-11-05T13:07:54.646Z,0.80
2022-11-05T13:10:30.757Z,0.70
2022-11-05T13:13:10.441Z,0.63
2022-11-05T13:15:42.295Z,0.82
2022-11-05T13:18:15.014Z,0.93
2022-11-05T13:20:49.571Z,0.80
2022-11-05T13:23:24.073Z,1.02
2022-11-05T13:25:58.891Z,0.93
2022-11-05T13:28:36.405Z,1.15
2022-11-05T13:31:10.157Z,1.02
2022-11-05T13:33:41.094Z,1.00
2022-11-05T13:36:26.907Z,1.08
2022-11-05T13:39:06.960Z,1.02
2022-11-05T13:41:53.278Z,1.27
2022-11-05T13:44:41.219Z,1.13
2022-11-05T13:47:32.067Z,1.02
2022-11-05T13:50:44.592Z,1.13
2022-11-05T13:53:33.418Z,1.08
2022-11-05T13:56:11.023Z,1.15
2022-11-05T13:59:05.755Z,1.10
2022-11-05T14:01:44.880Z,1.65
2022-11-05T14:04:23.483Z,1.08
2022-11-05T14:06:51.281Z,0.90
2022-11-05T14:09:25.095Z,1.30
2022-11-05T14:11:56.692Z,1.35
2022-11-05T14:14:28.767Z,1.20
2022-11-05T14:17:15.710Z,1.20
2022-11-05T14:20:09.457Z,1.42
2022-11-05T14:22:41.165Z,1.42
2022-11-05T14:26:00.042Z,1.23
2022-11-05T14:28:43.364Z,1.13
2022-11-05T14:32:10.045Z,1.30
2022-11-05T14:34:48.384Z,1.05
2022-11-05T14:37:36.818Z,1.00
2022-11-05T14:40:36.148Z,1.00
2022-11-05T14:43:06.634Z,1.02
2022-11-05T14:45:38.383Z,1.17
2022-11-05T14:48:24.360Z,1.10
2022-11-05T14:50:52.408Z,1.10
2022-11-05T14:53:31.112Z,1.20
2022-11-05T14:56:02.593Z,1.48
2022-11-05T14:58:36.360Z,1.00
2022-11-05T15:01:06.680Z,0.95
2022-11-05T15:04:12.002Z,1.55
2022-11-05T15:06:39.815Z,1.98
2022-11-05T15:09:29.799Z,0.80
2022-11-05T15:12:18.292Z,1.15
2022-11-05T15:14:55.433Z,1.10
2022-11-05T15:17:29.793Z,0.80
2022-11-05T15:20:10.056Z,1.25
2022-11-05T15:22:41.563Z,1.00
2022-11-05T15:25:18.287Z,1.20
2022-11-05T15:28:05.262Z,1.35
2022-11-05T15:30:33.726Z,1.10
2022-11-05T15:33:19.340Z,1.10
2022-11-05T15:35:48.607Z,1.15
2022-11-05T15:38:27.518Z,1.10
2022-11-05T15:41:00.142Z,1.40
2022-11-05T15:43:28.174Z,1.13
2022-11-05T15:46:07.054Z,1.15
2022-11-05T15:48:36.430Z,1.08
2022-11-05T15:51:05.959Z,1.10
2022-11-05T15:54:23.701Z,1.67
2022-11-05T15:56:50.568Z,1.27
2022-11-05T15:59:20.610Z,1.40
2022-11-05T16:01:50.897Z,1.50
2022-11-05T16:04:22.210Z,1.17
2022-11-05T16:06:54.306Z,1.40
2022-11-05T16:09:24.759Z,1.25
2022-11-05T16:12:10.031Z,1.50
2022-11-05T16:14:37.816Z,1.30
2022-11-05T16:17:18.380Z,1.63
2022-11-05T16:19:47.467Z,1.80
2022-11-05T16:22:16.655Z,1.70
2022-11-05T16:24:45.067Z,1.63
2022-11-05T16:27:19.388Z,1.98
2022-11-05T16:29:51.108Z,1.98
2022-11-05T16:32:29.480Z,1.90
2022-11-05T16:35:00.298Z,1.80
2022-11-05T16:37:40.967Z,1.67
2022-11-05T16:40:15.246Z,1.98
2022-11-05T16:42:43.539Z,1.77
2022-11-05T16:45:13.916Z,1.77
2022-11-05T16:47:42.975Z,2.08
2022-11-05T16:50:23.393Z,1.80
2022-11-05T16:52:53.079Z,1.80
2022-11-05T16:55:21.350Z,1.90
2022-11-05T16:57:51.858Z,2.17
2022-11-05T17:00:21.909Z,2.53
2022-11-05T17:02:50.069Z,2.50
2022-11-05T17:05:21.394Z,1.95
2022-11-05T17:07:49.133Z,2.00
2022-11-05T17:10:18.340Z,2.10
2022-11-05T17:12:46.675Z,1.83
2022-11-05T17:15:23.625Z,2.00
2022-11-05T17:17:52.221Z,1.80
2022-11-05T17:20:39.771Z,2.00
2022-11-05T17:23:09.073Z,2.03
2022-11-05T17:25:38.732Z,2.10
2022-11-05T17:28:06.602Z,2.33
2022-11-05T17:30:34.717Z,1.90
2022-11-05T17:33:02.599Z,2.65
2022-11-05T17:35:30.562Z,2.28
2022-11-05T17:37:58.440Z,2.10
2022-11-05T17:40:28.267Z,2.00
2022-11-05T17:42:57.337Z,2.45
2022-11-05T17:45:25.101Z,2.30
2022-11-05T17:47:52.874Z,2.40
2022-11-05T17:50:21.131Z,2.72
2022-11-05T17:52:48.929Z,2.65
2022-11-05T17:55:19.641Z,3.47
2022-11-05T17:57:48.770Z,2.47
2022-11-05T18:00:20.274Z,2.83
2022-11-05T18:02:49.543Z,2.88
2022-11-05T18:05:17.844Z,2.97
2022-11-05T18:07:46.974Z,2.80
2022-11-05T18:10:16.049Z,3.22
2022-11-05T18:12:44.617Z,3.30
2022-11-05T18:15:13.056Z,3.50
2022-11-05T18:17:42.710Z,3.15
2022-11-05T18:20:18.423Z,3.10
2022-11-05T18:22:48.932Z,3.28
2022-11-05T18:25:17.184Z,3.20
2022-11-05T18:27:45.222Z,3.50
2022-11-05T18:30:15.244Z,3.53
2022-11-05T18:32:44.790Z,3.70
2022-11-05T18:35:13.334Z,3.50
2022-11-05T18:37:41.638Z,3.70
2022-11-05T18:40:10.315Z,3.40
2022-11-05T18:42:38.100Z,3.35
2022-11-05T18:45:06.984Z,3.70
2022-11-05T18:47:34.806Z,3.55
2022-11-05T18:50:04.826Z,3.63
2022-11-05T18:52:33.081Z,3.58
2022-11-05T18:55:00.820Z,3.13
2022-11-05T18:57:29.013Z,3.72
2022-11-05T18:59:56.809Z,3.67
2022-11-05T19:02:24.713Z,4.20
2022-11-05T19:05:22.168Z,3.78
2022-11-05T19:07:41.801Z,4.47
2022-11-05T19:10:10.444Z,4.05
2022-11-05T19:12:38.209Z,4.60
2022-11-05T19:15:06.843Z,5.15
2022-11-05T19:17:35.480Z,4.13
2022-11-05T19:20:03.425Z,3.92
2022-11-05T19:22:31.328Z,4.47
2022-11-05T19:25:00.434Z,4.60
2022-11-05T19:27:28.445Z,4.07
2022-11-05T19:29:56.224Z,4.32
2022-11-05T19:32:24.426Z,4.15
2022-11-05T19:34:52.264Z,4.60
2022-11-05T19:37:20.070Z,4.82
2022-11-05T19:39:47.840Z,5.00
2022-11-05T19:42:16.941Z,4.68
2022-11-05T19:44:44.707Z,4.30
2022-11-05T19:47:12.469Z,5.20
2022-11-05T19:49:40.212Z,5.38
2022-11-05T19:52:07.977Z,4.95
2022-11-05T19:54:36.361Z,5.00
2022-11-05T19:57:04.212Z,5.10
2022-11-05T19:59:33.343Z,5.60
2022-11-05T20:02:01.169Z,5.53
2022-11-05T20:04:29.077Z,6.03
2022-11-05T20:06:56.843Z,5.22
2022-11-05T20:09:24.911Z,5.40
2022-11-05T20:11:54.901Z,5.05
2022-11-05T20:14:23.758Z,5.82
2022-11-05T20:16:54.204Z,5.38
2022-11-05T20:19:23.297Z,5.93
2022-11-05T20:21:51.385Z,6.00
2022-11-05T20:24:25.253Z,5.72
2022-11-05T20:26:54.325Z,5.57
2022-11-05T20:29:22.180Z,5.72
2022-11-05T20:31:50.308Z,6.07
2022-11-05T20:34:19.362Z,5.50
2022-11-05T20:36:47.073Z,5.57
2022-11-05T20:39:14.950Z,5.60
2022-11-05T20:41:42.726Z,6.00
2022-11-05T20:44:10.938Z,5.35
2022-11-05T20:46:38.759Z,6.50
2022-11-05T20:49:06.726Z,5.85
2022-11-05T20:51:35.771Z,5.78
2022-11-05T20:54:03.987Z,5.80
2022-11-05T20:56:34.596Z,5.13
2022-11-05T20:59:03.565Z,5.57
2022-11-05T21:01:33.092Z,5.55
2022-11-05T21:04:01.523Z,5.80
2022-11-05T21:06:29.933Z,5.65
2022-11-05T21:08:59.106Z,6.28
2022-11-05T21:11:26.919Z,6.00
2022-11-05T21:13:54.801Z,5.70
2022-11-05T21:16:22.828Z,5.88
2022-11-05T21:18:50.579Z,5.75
2022-11-05T21:21:20.437Z,5.28
2022-11-05T21:23:48.359Z,5.82
2022-11-05T21:26:18.554Z,5.90
2022-11-05T21:28:46.520Z,5.95
2022-11-05T21:31:14.674Z,6.47
2022-11-05T21:33:42.412Z,6.40
2022-11-05T21:36:11.863Z,5.57
2022-11-05T21:38:40.396Z,6.13
2022-11-05T21:41:08.771Z,5.65
2022-11-05T21:43:39.599Z,6.50
2022-11-05T21:46:07.384Z,5.90
2022-11-05T21:48:35.172Z,6.28
2022-11-05T21:51:20.393Z,5.95
2022-11-05T21:54:05.986Z,6.53
2022-11-05T21:56:51.937Z,5.78
2022-11-05T21:59:41.050Z,5.68
2022-11-05T22:02:11.176Z,6.53
2022-11-05T22:04:40.574Z,6.05
2022-11-05T22:07:09.758Z,5.82
2022-11-05T22:09:37.533Z,5.88
2022-11-05T22:12:06.057Z,6.25
2022-11-05T22:14:35.368Z,6.07
2022-11-05T22:17:03.957Z,6.25
2022-11-05T22:19:31.949Z,6.20
2022-11-05T22:21:59.823Z,5.78
2022-11-05T22:24:30.656Z,5.32
2022-11-05T22:26:58.844Z,6.05
2022-11-05T22:29:26.949Z,5.82
2022-11-05T22:31:56.770Z,5.70
2022-11-05T22:34:24.708Z,5.60
2022-11-05T22:36:52.869Z,6.00
2022-11-05T22:39:21.277Z,5.65
2022-11-05T22:41:49.714Z,5.80
2022-11-05T22:44:17.538Z,6.57
2022-11-05T22:46:45.366Z,6.03
2022-11-05T22:49:14.569Z,6.28
2022-11-05T22:51:42.420Z,6.70
2022-11-05T22:54:10.228Z,6.60
2022-11-05T22:56:39.856Z,6.53
2022-11-05T22:59:09.673Z,6.32
2022-11-05T23:01:37.577Z,7.05
2022-11-05T23:04:05.543Z,6.50
2022-11-05T23:06:52.741Z,6.53
2022-11-05T23:09:40.146Z,7.15
2022-11-05T23:12:10.032Z,6.57
2022-11-05T23:14:37.944Z,6.68
2022-11-05T23:17:23.678Z,7.30
2022-11-05T23:20:09.286Z,7.50
2022-11-05T23:22:55.997Z,7.43
2022-11-05T23:25:24.900Z,7.82
2022-11-05T23:27:54.273Z,7.93
2022-11-05T23:30:23.911Z,7.72
2022-11-05T23:32:51.391Z,8.10
2022-11-05T23:35:40.590Z,8.88
2022-11-05T23:38:36.174Z,8.10
2022-11-05T23:41:21.963Z,9.00
2022-11-05T23:44:07.685Z,8.32
2022-11-05T23:47:01.369Z,8.32
2022-11-05T23:49:29.184Z,8.73
2022-11-05T23:51:56.944Z,8.90
2022-11-05T23:54:26.032Z,8.63
2022-11-05T23:56:53.758Z,9.05
2022-11-05T23:59:21.665Z,8.68
